createdAt,value
2018-06-28T00:01:24.784Z,20.89
2018-06-28T00:03:52.720Z,20.89
2018-06-28T00:06:20.709Z,20.88
2018-06-28T00:08:48.626Z,20.81
2018-06-28T00:11:16.558Z,20.89
2018-06-28T00:13:44.469Z,20.76
2018-06-28T00:16:12.349Z,20.67
2018-06-28T00:18:40.330Z,20.66
2018-06-28T00:21:08.353Z,20.64
2018-06-28T00:23:36.236Z,20.49
2018-06-28T00:26:04.166Z,20.36
2018-06-28T00:28:32.060Z,20.48
2018-06-28T00:30:59.963Z,20.51
2018-06-28T00:33:27.858Z,20.69
2018-06-28T00:35:55.729Z,20.73
2018-06-28T00:38:23.608Z,20.83
2018-06-28T00:40:51.486Z,20.89
2018-06-28T00:43:19.388Z,20.93
2018-06-28T00:45:47.323Z,21.01
2018-06-28T00:48:15.188Z,20.88
2018-06-28T00:50:43.107Z,20.58
2018-06-28T00:53:11.023Z,20.24
2018-06-28T00:55:38.961Z,19.88
2018-06-28T00:58:06.940Z,20.14
2018-06-28T01:00:34.843Z,20.32
2018-06-28T01:03:02.848Z,20.38
2018-06-28T01:05:30.762Z,20.34
2018-06-28T01:07:58.677Z,20.23
2018-06-28T01:10:26.589Z,20.33
2018-06-28T01:12:54.485Z,20.36
2018-06-28T01:15:22.397Z,20.22
2018-06-28T01:17:50.264Z,20.18
2018-06-28T01:20:18.222Z,20.49
2018-06-28T01:22:46.114Z,20.50
2018-06-28T01:25:13.977Z,20.55
2018-06-28T01:27:41.860Z,20.55
2018-06-28T01:30:09.773Z,20.71
2018-06-28T01:32:37.675Z,20.78
2018-06-28T01:35:05.685Z,20.50
2018-06-28T01:37:33.580Z,20.35
2018-06-28T01:40:01.488Z,20.35
2018-06-28T01:42:43.017Z,20.33
2018-06-28T01:45:10.969Z,20.41
2018-06-28T01:47:39.262Z,20.30
2018-06-28T01:50:07.135Z,20.27
2018-06-28T01:52:35.020Z,20.35
2018-06-28T01:55:02.949Z,20.37
2018-06-28T01:57:30.867Z,20.23
2018-06-28T01:59:58.749Z,20.23
2018-06-28T02:02:26.607Z,20.45
2018-06-28T02:04:54.504Z,20.51
2018-06-28T02:07:22.404Z,20.54
2018-06-28T02:09:50.316Z,20.74
2018-06-28T02:12:18.195Z,20.60
2018-06-28T02:14:46.160Z,20.56
2018-06-28T02:17:14.058Z,20.50
2018-06-28T02:19:41.941Z,20.41
2018-06-28T02:22:09.833Z,20.43
2018-06-28T02:24:37.782Z,20.40
2018-06-28T02:27:06.039Z,20.55
2018-06-28T02:29:34.061Z,20.62
2018-06-28T02:32:02.001Z,20.56
2018-06-28T02:34:29.945Z,20.21
2018-06-28T02:36:57.941Z,20.40
2018-06-28T02:39:25.882Z,20.50
2018-06-28T02:41:53.803Z,20.44
2018-06-28T02:44:22.237Z,20.55
2018-06-28T02:46:50.180Z,20.71
2018-06-28T02:49:18.227Z,20.64
2018-06-28T02:51:46.154Z,20.59
2018-06-28T02:54:14.033Z,20.51
2018-06-28T02:56:41.986Z,20.55
2018-06-28T02:59:10.095Z,20.68
2018-06-28T03:01:38.898Z,20.72
2018-06-28T03:04:06.912Z,20.79
2018-06-28T03:06:34.846Z,20.74
2018-06-28T03:09:03.309Z,20.49
2018-06-28T03:11:31.319Z,20.46
2018-06-28T03:13:59.322Z,20.54
2018-06-28T03:16:30.390Z,20.54
2018-06-28T03:18:58.332Z,20.37
2018-06-28T03:21:26.233Z,20.34
2018-06-28T03:23:54.257Z,20.46
2018-06-28T03:26:22.166Z,20.78
2018-06-28T03:28:50.114Z,20.63
2018-06-28T03:31:19.871Z,20.68
2018-06-28T03:33:47.828Z,20.78
2018-06-28T03:36:15.781Z,20.61
2018-06-28T03:38:43.671Z,20.63
2018-06-28T03:41:11.547Z,20.67
2018-06-28T03:43:39.466Z,20.82
2018-06-28T03:46:07.373Z,20.80
2018-06-28T03:48:35.274Z,20.74
2018-06-28T03:51:03.219Z,20.73
2018-06-28T03:53:31.140Z,20.61
2018-06-28T03:55:59.444Z,20.61
2018-06-28T03:58:27.336Z,20.83
2018-06-28T04:00:55.280Z,20.91
2018-06-28T04:03:23.228Z,21.05
2018-06-28T04:05:51.432Z,21.16
2018-06-28T04:08:19.425Z,21.13
2018-06-28T04:10:48.099Z,20.96
2018-06-28T04:13:16.100Z,20.89
2018-06-28T04:15:44.912Z,20.86
2018-06-28T04:18:13.514Z,21.03
2018-06-28T04:20:42.344Z,20.82
2018-06-28T04:23:10.360Z,20.93
2018-06-28T04:25:38.411Z,20.89
2018-06-28T04:28:06.347Z,20.85
2018-06-28T04:30:34.267Z,20.66
2018-06-28T04:33:02.322Z,20.72
2018-06-28T04:35:30.390Z,20.85
2018-06-28T04:37:58.389Z,21.17
2018-06-28T04:40:26.347Z,21.15
2018-06-28T04:42:54.344Z,20.97
2018-06-28T04:45:22.331Z,21.21
2018-06-28T04:48:28.494Z,21.21
2018-06-28T04:50:56.442Z,21.04
2018-06-28T04:53:24.374Z,20.96
2018-06-28T04:55:52.275Z,20.84
2018-06-28T04:58:20.228Z,20.88
2018-06-28T05:00:48.204Z,21.06
2018-06-28T05:03:16.186Z,21.27
2018-06-28T05:05:44.181Z,21.43
2018-06-28T05:08:12.183Z,21.51
2018-06-28T05:10:40.231Z,21.72
2018-06-28T05:13:08.255Z,22.10
2018-06-28T05:15:36.326Z,22.42
2018-06-28T05:18:04.460Z,22.66
2018-06-28T05:20:32.490Z,23.42
2018-06-28T05:23:00.454Z,24.37
2018-06-28T05:25:28.432Z,26.07
2018-06-28T05:27:56.438Z,26.75
2018-06-28T05:30:24.408Z,26.45
2018-06-28T05:32:52.356Z,24.67
2018-06-28T05:35:20.379Z,24.89
2018-06-28T05:37:48.506Z,24.98
2018-06-28T05:40:16.475Z,24.71
2018-06-28T05:42:44.396Z,24.74
2018-06-28T05:45:12.359Z,25.04
2018-06-28T05:47:40.374Z,25.35
2018-06-28T05:50:08.330Z,26.37
2018-06-28T05:52:36.318Z,28.49
2018-06-28T05:55:04.248Z,32.56
2018-06-28T05:57:32.119Z,35.25
2018-06-28T06:00:00.033Z,34.07
2018-06-28T06:02:27.918Z,35.04
2018-06-28T06:04:55.881Z,35.37
2018-06-28T06:07:23.790Z,35.54
2018-06-28T06:09:51.758Z,33.78
2018-06-28T06:12:19.706Z,34.91
2018-06-28T06:14:47.562Z,34.97
2018-06-28T06:17:15.479Z,34.51
2018-06-28T06:19:43.408Z,35.70
2018-06-28T06:22:11.334Z,33.55
2018-06-28T06:24:39.396Z,32.62
2018-06-28T06:27:07.311Z,33.38
2018-06-28T06:29:35.208Z,32.01
2018-06-28T06:32:03.167Z,30.38
2018-06-28T06:34:31.011Z,30.01
2018-06-28T06:36:58.912Z,29.67
2018-06-28T06:39:26.930Z,29.24
2018-06-28T06:41:54.786Z,29.77
2018-06-28T06:44:22.664Z,30.34
2018-06-28T06:46:50.558Z,30.35
2018-06-28T06:49:18.888Z,30.09
2018-06-28T06:51:46.784Z,28.46
2018-06-28T06:54:14.707Z,27.41
2018-06-28T06:56:42.678Z,27.56
2018-06-28T06:59:10.522Z,26.49
2018-06-28T07:01:38.418Z,26.44
2018-06-28T07:04:06.433Z,25.95
2018-06-28T07:06:34.316Z,26.36
2018-06-28T07:09:02.199Z,27.46
2018-06-28T07:11:30.079Z,28.27
2018-06-28T07:13:57.966Z,28.26
2018-06-28T07:16:25.895Z,27.86
2018-06-28T07:18:53.813Z,28.89
2018-06-28T07:21:21.732Z,29.66
2018-06-28T07:23:49.633Z,29.28
2018-06-28T07:26:17.605Z,28.83
2018-06-28T07:28:45.659Z,28.47
2018-06-28T07:31:13.539Z,27.74
2018-06-28T07:33:41.390Z,27.81
2018-06-28T07:36:09.396Z,26.82
2018-06-28T07:38:37.227Z,26.69
2018-06-28T07:41:05.209Z,26.61
2018-06-28T07:43:33.054Z,26.75
2018-06-28T07:46:00.907Z,26.91
2018-06-28T07:48:28.754Z,26.30
2018-06-28T07:50:56.709Z,25.99
2018-06-28T07:53:24.603Z,25.52
2018-06-28T07:55:52.514Z,25.10
2018-06-28T07:58:20.461Z,25.42
2018-06-28T08:00:48.331Z,25.81
2018-06-28T08:03:16.232Z,25.84
2018-06-28T08:05:44.144Z,25.65
2018-06-28T08:08:11.997Z,25.46
2018-06-28T08:10:39.878Z,24.89
2018-06-28T08:13:07.860Z,25.63
2018-06-28T08:15:35.767Z,26.27
2018-06-28T08:18:03.686Z,27.13
2018-06-28T08:20:31.589Z,28.35
2018-06-28T08:22:59.564Z,29.63
2018-06-28T08:25:27.470Z,30.29
2018-06-28T08:27:55.417Z,31.22
2018-06-28T08:30:23.289Z,30.29
2018-06-28T08:32:51.191Z,31.17
2018-06-28T08:35:19.116Z,30.39
2018-06-28T08:37:47.018Z,29.34
2018-06-28T08:40:14.958Z,30.21
2018-06-28T08:42:42.947Z,30.95
2018-06-28T08:45:10.863Z,31.47
2018-06-28T08:47:38.816Z,32.08
2018-06-28T08:50:06.712Z,32.03
2018-06-28T08:52:34.676Z,32.11
2018-06-28T08:55:02.691Z,32.14
2018-06-28T08:57:30.629Z,32.68
2018-06-28T08:59:58.773Z,30.23
2018-06-28T09:02:26.639Z,30.11
2018-06-28T09:04:54.558Z,30.50
2018-06-28T09:07:22.795Z,29.89
2018-06-28T09:09:50.938Z,29.04
2018-06-28T09:12:18.836Z,29.22
2018-06-28T09:14:46.708Z,29.24
2018-06-28T09:17:14.607Z,28.41
2018-06-28T09:19:42.471Z,28.56
2018-06-28T09:22:10.358Z,29.30
2018-06-28T09:24:38.285Z,30.96
2018-06-28T09:27:06.331Z,31.52
2018-06-28T09:29:34.416Z,31.56
2018-06-28T09:32:02.306Z,32.57
2018-06-28T09:34:30.227Z,32.35
2018-06-28T09:36:58.265Z,32.78
2018-06-28T09:39:26.184Z,30.85
2018-06-28T09:41:54.143Z,29.95
2018-06-28T09:44:22.143Z,29.98
2018-06-28T09:46:50.108Z,30.19
2018-06-28T09:49:18.015Z,29.74
2018-06-28T09:51:45.895Z,29.74
2018-06-28T09:54:13.772Z,30.73
2018-06-28T09:56:41.805Z,31.46
2018-06-28T09:59:09.717Z,31.64
2018-06-28T10:01:37.594Z,31.36
2018-06-28T10:04:05.520Z,31.33
2018-06-28T10:06:33.384Z,30.60
2018-06-28T10:09:01.265Z,30.99
2018-06-28T10:11:29.208Z,30.22
2018-06-28T10:13:57.075Z,30.72
2018-06-28T10:16:25.036Z,30.55
2018-06-28T10:18:52.927Z,31.06
2018-06-28T10:21:20.772Z,30.78
2018-06-28T10:23:48.644Z,31.01
2018-06-28T10:26:16.552Z,32.08
2018-06-28T10:28:44.462Z,31.71
2018-06-28T10:31:12.334Z,32.63
2018-06-28T10:33:40.222Z,33.02
2018-06-28T10:36:08.138Z,33.02
2018-06-28T10:38:36.081Z,32.63
2018-06-28T10:41:04.055Z,30.88
2018-06-28T10:43:31.960Z,30.79
2018-06-28T10:45:59.891Z,30.73
2018-06-28T10:48:27.714Z,30.94
2018-06-28T10:50:55.574Z,30.39
2018-06-28T10:53:23.514Z,29.94
2018-06-28T10:55:51.720Z,30.01
2018-06-28T10:58:19.645Z,29.69
2018-06-28T11:00:47.851Z,30.73
2018-06-28T11:03:15.763Z,30.48
2018-06-28T11:05:43.668Z,31.22
2018-06-28T11:08:11.555Z,30.10
2018-06-28T11:10:39.485Z,29.05
2018-06-28T11:13:07.364Z,28.54
2018-06-28T11:15:35.282Z,27.91
2018-06-28T11:18:03.239Z,27.74
2018-06-28T11:20:31.115Z,26.97
2018-06-28T11:22:59.012Z,26.24
2018-06-28T11:25:26.911Z,25.75
2018-06-28T11:27:54.916Z,25.21
2018-06-28T11:30:22.933Z,24.63
2018-06-28T11:32:50.806Z,24.03
2018-06-28T11:35:18.694Z,23.40
2018-06-28T11:37:46.567Z,23.27
2018-06-28T11:40:14.431Z,22.93
2018-06-28T11:42:42.330Z,22.81
2018-06-28T11:45:10.267Z,22.74
2018-06-28T11:47:38.127Z,22.44
2018-06-28T11:50:06.005Z,22.05
2018-06-28T11:52:33.875Z,21.95
2018-06-28T11:55:01.767Z,21.63
2018-06-28T11:57:29.862Z,21.67
2018-06-28T11:59:57.724Z,21.38
2018-06-28T12:02:25.745Z,21.16
2018-06-28T12:04:53.745Z,21.23
2018-06-28T12:07:21.776Z,21.25
2018-06-28T12:09:49.763Z,21.22
2018-06-28T12:12:17.818Z,21.11
2018-06-28T12:14:45.760Z,21.21
2018-06-28T12:17:13.678Z,21.02
2018-06-28T12:19:41.696Z,21.04
2018-06-28T12:22:09.728Z,21.11
2018-06-28T12:24:37.748Z,20.91
2018-06-28T12:27:05.717Z,21.68
2018-06-28T12:29:33.799Z,22.06
2018-06-28T12:32:01.741Z,22.09
2018-06-28T12:34:29.690Z,22.16
2018-06-28T12:36:57.612Z,22.08
2018-06-28T12:39:25.517Z,22.19
2018-06-28T12:41:53.440Z,22.11
2018-06-28T12:44:21.342Z,22.09
2018-06-28T12:48:56.508Z,22.13
2018-06-28T12:51:35.344Z,21.86
2018-06-28T12:54:03.355Z,22.08
2018-06-28T12:56:32.456Z,21.99
2018-06-28T12:59:01.645Z,21.87
2018-06-28T13:01:29.939Z,22.03
2018-06-28T13:03:58.097Z,22.54
2018-06-28T13:06:26.052Z,22.79
2018-06-28T13:08:54.665Z,23.07
2018-06-28T13:11:22.827Z,23.40
2018-06-28T13:13:50.843Z,23.39
2018-06-28T13:16:19.488Z,23.33
2018-06-28T13:18:48.183Z,23.35
2018-06-28T13:21:16.185Z,23.50
2018-06-28T13:23:44.241Z,23.38
2018-06-28T13:26:13.287Z,23.60
2018-06-28T13:28:41.822Z,23.29
2018-06-28T13:31:09.720Z,23.35
2018-06-28T13:33:37.708Z,23.11
2018-06-28T13:36:05.740Z,23.25
2018-06-28T13:38:33.686Z,23.45
2018-06-28T13:41:01.912Z,23.36
2018-06-28T13:43:29.789Z,23.46
2018-06-28T13:45:57.731Z,23.60
2018-06-28T13:48:25.630Z,23.31
2018-06-28T13:50:53.958Z,23.16
2018-06-28T13:53:22.165Z,23.07
2018-06-28T13:55:50.157Z,23.37
2018-06-28T13:58:18.205Z,23.64
2018-06-28T14:00:46.207Z,23.82
2018-06-28T14:03:14.580Z,24.23
2018-06-28T14:05:42.396Z,24.08
2018-06-28T14:08:10.499Z,24.13
2018-06-28T14:10:38.682Z,24.38
2018-06-28T14:13:06.674Z,24.34
2018-06-28T14:15:34.654Z,24.19
2018-06-28T14:18:02.536Z,24.19
2018-06-28T14:20:30.547Z,23.88
2018-06-28T14:22:58.325Z,23.94
2018-06-28T14:25:26.188Z,24.18
2018-06-28T14:27:54.068Z,24.03
2018-06-28T14:30:21.957Z,23.44
2018-06-28T14:32:50.138Z,23.41
2018-06-28T14:35:18.046Z,23.38
2018-06-28T14:37:45.970Z,23.40
2018-06-28T14:40:13.847Z,23.81
2018-06-28T14:42:41.744Z,24.01
2018-06-28T14:45:09.739Z,23.71
2018-06-28T14:47:37.715Z,23.57
2018-06-28T14:50:05.710Z,24.07
2018-06-28T14:52:33.661Z,24.11
2018-06-28T14:55:01.601Z,24.21
2018-06-28T14:57:29.520Z,24.04
2018-06-28T14:59:57.585Z,23.89
2018-06-28T15:02:25.565Z,24.04
2018-06-28T15:04:53.457Z,23.93
2018-06-28T15:07:21.391Z,24.00
2018-06-28T15:09:49.344Z,24.08
2018-06-28T15:12:17.270Z,24.02
2018-06-28T15:14:45.175Z,23.78
2018-06-28T15:17:13.094Z,23.98
2018-06-28T15:19:41.020Z,24.16
2018-06-28T15:22:08.985Z,24.40
2018-06-28T15:24:37.868Z,24.09
2018-06-28T15:27:05.875Z,23.78
2018-06-28T15:29:34.960Z,24.15
2018-06-28T15:32:03.011Z,24.67
2018-06-28T15:34:31.345Z,25.48
2018-06-28T15:36:59.402Z,26.38
2018-06-28T15:39:27.430Z,26.72
2018-06-28T15:41:55.451Z,26.59
2018-06-28T15:44:23.382Z,25.69
2018-06-28T15:46:51.430Z,24.75
2018-06-28T15:49:19.363Z,24.19
2018-06-28T15:51:47.345Z,25.23
2018-06-28T15:54:15.252Z,25.30
2018-06-28T15:56:43.148Z,25.50
2018-06-28T15:59:11.084Z,25.41
2018-06-28T16:01:39.004Z,25.61
2018-06-28T16:04:06.926Z,25.15
2018-06-28T16:06:34.838Z,24.81
2018-06-28T16:09:03.227Z,23.63
2018-06-28T16:11:31.313Z,22.92
2018-06-28T16:13:59.225Z,22.99
2018-06-28T16:16:27.143Z,23.27
2018-06-28T16:18:55.127Z,23.37
2018-06-28T16:21:23.036Z,23.34
2018-06-28T16:23:50.910Z,23.27
2018-06-28T16:26:18.820Z,23.04
2018-06-28T16:28:46.818Z,23.00
2018-06-28T16:31:14.691Z,23.15
2018-06-28T16:33:42.559Z,23.05
2018-06-28T16:36:10.463Z,23.19
2018-06-28T16:38:38.318Z,23.25
2018-06-28T16:41:06.183Z,22.94
2018-06-28T16:43:34.105Z,22.51
2018-06-28T16:46:02.008Z,22.76
2018-06-28T16:48:29.901Z,22.95
2018-06-28T16:50:57.765Z,22.63
2018-06-28T16:53:25.657Z,22.12
2018-06-28T16:55:53.539Z,22.29
2018-06-28T16:58:21.389Z,22.22
2018-06-28T17:00:49.270Z,22.53
2018-06-28T17:03:17.150Z,22.32
2018-06-28T17:05:45.590Z,22.12
2018-06-28T17:08:13.522Z,21.81
2018-06-28T17:10:41.437Z,21.95
2018-06-28T17:13:09.372Z,21.73
2018-06-28T17:15:37.677Z,21.64
2018-06-28T17:18:05.589Z,21.14
2018-06-28T17:20:33.589Z,21.44
2018-06-28T17:23:01.480Z,21.62
2018-06-28T17:25:29.433Z,21.62
2018-06-28T17:27:57.487Z,21.55
2018-06-28T17:30:25.817Z,21.02
2018-06-28T17:32:53.835Z,20.89
2018-06-28T17:35:21.732Z,20.46
2018-06-28T17:37:49.695Z,20.38
2018-06-28T17:40:17.667Z,20.76
2018-06-28T17:42:45.582Z,20.57
2018-06-28T17:45:13.530Z,20.81
2018-06-28T17:47:41.439Z,20.59
2018-06-28T17:50:09.376Z,20.65
2018-06-28T17:52:37.255Z,20.60
2018-06-28T17:55:05.258Z,20.48
2018-06-28T17:57:33.143Z,20.38
2018-06-28T18:00:01.083Z,20.43
2018-06-28T18:02:29.009Z,20.49
2018-06-28T18:04:57.048Z,20.10
2018-06-28T18:07:24.979Z,20.13
2018-06-28T18:09:52.885Z,20.11
2018-06-28T18:12:20.797Z,20.35
2018-06-28T18:14:48.730Z,20.30
2018-06-28T18:17:16.701Z,20.25
2018-06-28T18:19:44.571Z,20.28
2018-06-28T18:22:12.504Z,20.28
2018-06-28T18:24:40.431Z,20.26
2018-06-28T18:27:08.352Z,20.22
2018-06-28T18:29:36.293Z,20.12
2018-06-28T18:32:04.175Z,20.17
2018-06-28T18:34:32.123Z,20.36
2018-06-28T18:37:00.115Z,20.35
2018-06-28T18:39:28.067Z,20.40
2018-06-28T18:41:56.036Z,20.46
2018-06-28T18:44:24.013Z,20.56
2018-06-28T18:46:52.110Z,20.49
2018-06-28T18:49:20.122Z,20.41
2018-06-28T18:51:48.050Z,20.51
2018-06-28T18:54:16.012Z,20.53
2018-06-28T18:56:43.957Z,20.60
2018-06-28T18:59:11.863Z,20.73
2018-06-28T19:01:39.750Z,20.82
2018-06-28T19:04:07.675Z,20.74
2018-06-28T19:06:35.585Z,20.69
2018-06-28T19:09:05.643Z,20.68
2018-06-28T19:11:33.549Z,20.74
2018-06-28T19:14:06.902Z,20.86
2018-06-28T19:16:40.071Z,20.78
2018-06-28T19:19:07.927Z,20.74
2018-06-28T19:21:41.213Z,20.58
2018-06-28T19:24:09.470Z,20.41
2018-06-28T19:26:37.344Z,20.41
2018-06-28T19:29:10.809Z,20.74
2018-06-28T19:31:44.363Z,20.89
2018-06-28T19:34:12.335Z,20.71
2018-06-28T19:36:40.238Z,20.76
2018-06-28T19:39:13.974Z,20.80
2018-06-28T19:43:49.916Z,20.27
2018-06-28T19:46:17.865Z,20.57
2018-06-28T19:48:45.849Z,20.81
2018-06-28T19:51:19.122Z,20.87
2018-06-28T19:53:47.013Z,20.92
2018-06-28T19:56:15.010Z,20.95
2018-06-28T19:58:42.871Z,20.76
2018-06-28T20:01:16.188Z,20.64
2018-06-28T20:03:49.470Z,20.54
2018-06-28T20:06:17.393Z,20.40
2018-06-28T20:08:45.269Z,20.21
2018-06-28T20:11:13.215Z,20.33
2018-06-28T20:13:46.599Z,20.43
2018-06-28T20:16:19.987Z,20.46
2018-06-28T20:18:53.336Z,20.55
2018-06-28T20:21:21.205Z,20.55
2018-06-28T20:23:49.092Z,20.51
2018-06-28T20:26:22.450Z,20.49
2018-06-28T20:28:55.723Z,20.35
2018-06-28T20:31:29.184Z,20.32
2018-06-28T20:34:02.665Z,20.41
2018-06-28T20:36:30.572Z,20.56
2018-06-28T20:38:58.449Z,20.71
2018-06-28T20:41:26.263Z,20.79
2018-06-28T20:43:54.224Z,20.84
2018-06-28T20:46:22.515Z,20.80
2018-06-28T20:48:50.424Z,20.61
2018-06-28T20:51:18.389Z,20.57
2018-06-28T20:53:46.191Z,20.43
2018-06-28T20:56:14.065Z,20.38
2018-06-28T20:58:42.142Z,20.45
2018-06-28T21:01:10.070Z,20.49
2018-06-28T21:03:38.211Z,20.51
2018-06-28T21:06:06.091Z,20.47
2018-06-28T21:08:33.923Z,20.37
2018-06-28T21:11:01.776Z,20.24
2018-06-28T21:13:29.621Z,19.93
2018-06-28T21:15:57.475Z,19.54
2018-06-28T21:18:25.295Z,19.61
2018-06-28T21:20:53.067Z,19.63
2018-06-28T21:23:20.849Z,19.51
2018-06-28T21:25:48.654Z,19.54
2018-06-28T21:28:16.505Z,19.30
2018-06-28T21:30:44.346Z,19.37
2018-06-28T21:33:12.144Z,19.22
2018-06-28T21:35:39.947Z,19.22
2018-06-28T21:38:08.024Z,19.36
2018-06-28T21:40:35.843Z,19.53
2018-06-28T21:43:03.651Z,19.46
2018-06-28T21:45:31.423Z,19.40
2018-06-28T21:47:59.234Z,19.26
2018-06-28T21:50:26.994Z,19.15
2018-06-28T21:52:54.842Z,19.34
2018-06-28T21:55:22.912Z,19.45
2018-06-28T21:57:50.678Z,19.20
2018-06-28T22:00:29.527Z,19.11
2018-06-28T22:02:57.820Z,19.21
2018-06-28T22:05:25.665Z,19.38
2018-06-28T22:07:53.572Z,19.58
2018-06-28T22:10:21.959Z,19.60
2018-06-28T22:12:49.772Z,19.35
2018-06-28T22:15:23.174Z,19.57
2018-06-28T22:17:51.184Z,19.49
2018-06-28T22:20:18.992Z,19.56
2018-06-28T22:22:46.767Z,19.43
2018-06-28T22:25:14.948Z,19.30
2018-06-28T22:27:42.747Z,19.40
2018-06-28T22:30:10.571Z,19.63
2018-06-28T22:32:38.387Z,19.45
2018-06-28T22:35:06.200Z,19.40
2018-06-28T22:37:34.000Z,19.51
2018-06-28T22:40:01.809Z,19.58
2018-06-28T22:42:29.684Z,19.52
2018-06-28T22:44:57.571Z,19.70
2018-06-28T22:47:25.366Z,19.60
2018-06-28T22:49:53.191Z,19.75
2018-06-28T22:52:20.983Z,20.05
2018-06-28T22:54:48.765Z,20.20
2018-06-28T22:57:16.564Z,20.18
2018-06-28T22:59:44.366Z,20.22
2018-06-28T23:02:12.465Z,20.40
2018-06-28T23:04:40.370Z,20.38
2018-06-28T23:07:08.223Z,20.41
2018-06-28T23:09:36.086Z,20.50
2018-06-28T23:12:03.940Z,20.48
2018-06-28T23:14:31.778Z,20.54
2018-06-28T23:16:59.627Z,20.55
2018-06-28T23:19:27.494Z,20.57
2018-06-28T23:21:55.328Z,20.63
2018-06-28T23:24:23.199Z,20.62
2018-06-28T23:26:51.055Z,20.56
2018-06-28T23:29:18.927Z,20.59
2018-06-28T23:31:46.826Z,20.53
2018-06-28T23:34:14.691Z,20.46
2018-06-28T23:36:42.613Z,20.31
2018-06-28T23:39:11.510Z,19.96
2018-06-28T23:41:39.749Z,19.90
2018-06-28T23:44:08.094Z,20.05
2018-06-28T23:46:36.280Z,20.03
2018-06-28T23:49:04.467Z,20.10
2018-06-28T23:51:32.559Z,20.21
2018-06-28T23:54:01.094Z,20.29
2018-06-28T23:56:29.028Z,20.37
2018-06-28T23:58:56.807Z,20.29
